createdAt,value
2019-02-27T00:00:37.388Z,0
2019-02-27T00:01:37.385Z,0
2019-02-27T00:02:37.604Z,0
2019-02-27T00:03:37.593Z,0
2019-02-27T00:04:41.808Z,0
2019-02-27T00:05:38.834Z,0
2019-02-27T00:06:37.530Z,0
2019-02-27T00:07:37.512Z,0
2019-02-27T00:08:37.498Z,0
2019-02-27T00:09:39.990Z,0
2019-02-27T00:10:39.873Z,0
2019-02-27T00:11:37.441Z,0
2019-02-27T00:12:37.426Z,0
2019-02-27T00:13:37.404Z,0
2019-02-27T00:14:38.851Z,0
2019-02-27T00:15:40.312Z,0
2019-02-27T00:16:37.139Z,0
2019-02-27T00:17:37.349Z,0
2019-02-27T00:18:37.311Z,0
2019-02-27T00:19:39.004Z,0
2019-02-27T00:20:41.619Z,0
2019-02-27T00:21:37.263Z,0
2019-02-27T00:22:41.577Z,0
2019-02-27T00:23:36.982Z,0
2019-02-27T00:24:37.746Z,0
2019-02-27T00:25:40.770Z,0
2019-02-27T00:26:39.474Z,0
2019-02-27T00:27:37.158Z,0
2019-02-27T00:28:37.138Z,0
2019-02-27T00:29:37.125Z,0
2019-02-27T00:30:40.176Z,0
2019-02-27T00:31:37.088Z,0
2019-02-27T00:32:37.064Z,0
2019-02-27T00:33:36.799Z,0
2019-02-27T00:34:40.201Z,0
2019-02-27T00:35:41.508Z,0
2019-02-27T00:36:36.766Z,0
2019-02-27T00:37:36.991Z,0
2019-02-27T00:38:36.959Z,0
2019-02-27T00:39:38.622Z,0
2019-02-27T00:40:41.009Z,0
2019-02-27T00:41:36.914Z,0
2019-02-27T00:42:40.876Z,0
2019-02-27T00:43:36.621Z,0
2019-02-27T00:44:41.186Z,0
2019-02-27T00:45:39.618Z,0
2019-02-27T00:46:36.821Z,0
2019-02-27T00:47:36.567Z,0
2019-02-27T00:48:36.782Z,0
2019-02-27T00:49:39.232Z,0
2019-02-27T00:50:38.872Z,0
2019-02-27T00:51:36.485Z,0
2019-02-27T00:52:36.842Z,0
2019-02-27T00:53:36.447Z,0
2019-02-27T00:54:39.151Z,0
2019-02-27T00:55:41.035Z,0
2019-02-27T00:56:36.637Z,0
2019-02-27T00:57:36.375Z,0
2019-02-27T00:58:36.602Z,0
2019-02-27T00:59:40.212Z,0
2019-02-27T01:00:38.869Z,0
2019-02-27T01:01:36.563Z,0
2019-02-27T01:02:36.536Z,0
2019-02-27T01:03:36.521Z,0
2019-02-27T01:04:39.918Z,0
2019-02-27T01:05:36.486Z,0
2019-02-27T01:06:36.467Z,0
2019-02-27T01:07:36.442Z,0
2019-02-27T01:08:36.467Z,0
2019-02-27T01:09:37.179Z,0
2019-02-27T01:10:36.386Z,0
2019-02-27T01:11:36.396Z,0
2019-02-27T01:12:36.102Z,0
2019-02-27T01:13:38.421Z,0
2019-02-27T01:14:39.533Z,0
2019-02-27T01:15:36.306Z,0
2019-02-27T01:16:36.284Z,0
2019-02-27T01:17:35.764Z,0
2019-02-27T01:18:38.213Z,0
2019-02-27T01:19:42.642Z,0
2019-02-27T01:20:36.210Z,0
2019-02-27T01:21:36.196Z,0
2019-02-27T01:22:36.178Z,0
2019-02-27T01:23:36.157Z,0
2019-02-27T01:24:35.908Z,0
2019-02-27T01:25:36.122Z,0
2019-02-27T01:26:38.623Z,0
2019-02-27T01:27:40.147Z,0
2019-02-27T01:28:36.061Z,0
2019-02-27T01:29:36.041Z,0
2019-02-27T01:30:36.039Z,0
2019-02-27T01:31:35.761Z,0
2019-02-27T01:32:38.365Z,0
2019-02-27T01:33:40.319Z,0
2019-02-27T01:34:35.963Z,0
2019-02-27T01:35:35.943Z,0
2019-02-27T01:36:35.924Z,0
2019-02-27T01:37:38.766Z,0
2019-02-27T01:38:40.321Z,0
2019-02-27T01:39:35.616Z,0
2019-02-27T01:40:35.605Z,0
2019-02-27T01:41:35.349Z,0
2019-02-27T01:42:39.348Z,0
2019-02-27T01:43:36.862Z,0
2019-02-27T01:44:35.771Z,0
2019-02-27T01:45:35.756Z,0
2019-02-27T01:46:35.508Z,0
2019-02-27T01:47:38.317Z,0
2019-02-27T01:48:35.707Z,0
2019-02-27T01:49:35.692Z,0
2019-02-27T01:50:35.892Z,0
2019-02-27T01:51:36.041Z,0
2019-02-27T01:52:38.580Z,0
2019-02-27T01:53:37.892Z,0
2019-02-27T01:54:35.616Z,0
2019-02-27T01:55:35.322Z,0
2019-02-27T01:56:36.728Z,0
2019-02-27T01:57:39.064Z,0
2019-02-27T01:58:35.523Z,0
2019-02-27T01:59:35.500Z,0
2019-02-27T02:00:35.246Z,0
2019-02-27T02:01:37.609Z,0
2019-02-27T02:02:39.738Z,0
2019-02-27T02:03:35.183Z,0
2019-02-27T02:04:35.164Z,0
2019-02-27T02:05:34.916Z,0
2019-02-27T02:06:39.446Z,0
2019-02-27T02:07:35.361Z,0
2019-02-27T02:08:35.336Z,0
2019-02-27T02:09:35.329Z,0
2019-02-27T02:10:36.015Z,0
2019-02-27T02:11:38.047Z,0
2019-02-27T02:12:35.018Z,0
2019-02-27T02:13:35.255Z,0
2019-02-27T02:14:34.981Z,0
2019-02-27T02:15:35.221Z,0
2019-02-27T02:16:39.043Z,0
2019-02-27T02:17:35.173Z,0
2019-02-27T02:18:35.164Z,0
2019-02-27T02:19:35.136Z,0
2019-02-27T02:20:34.886Z,0
2019-02-27T02:21:38.697Z,0
2019-02-27T02:22:35.085Z,0
2019-02-27T02:23:35.065Z,0
2019-02-27T02:24:34.808Z,0
2019-02-27T02:25:35.718Z,0
2019-02-27T02:26:39.628Z,0
2019-02-27T02:27:35.003Z,0
2019-02-27T02:28:34.751Z,0
2019-02-27T02:29:34.952Z,0
2019-02-27T02:30:37.605Z,0
2019-02-27T02:31:40.716Z,0
2019-02-27T02:32:34.904Z,0
2019-02-27T02:33:37.221Z,0
2019-02-27T02:34:39.696Z,0
2019-02-27T02:35:34.874Z,0
2019-02-27T02:36:34.588Z,0
2019-02-27T02:37:39.059Z,0
2019-02-27T02:38:34.791Z,0
2019-02-27T02:39:34.808Z,0
2019-02-27T02:40:38.134Z,0
2019-02-27T02:41:34.748Z,0
2019-02-27T02:42:34.718Z,0
2019-02-27T02:43:39.956Z,0
2019-02-27T02:44:34.451Z,0
2019-02-27T02:45:40.060Z,0
2019-02-27T02:46:34.656Z,0
2019-02-27T02:47:34.391Z,0
2019-02-27T02:48:38.002Z,0
2019-02-27T02:49:34.347Z,0
2019-02-27T02:50:34.342Z,0
2019-02-27T02:51:36.965Z,0
2019-02-27T02:52:40.128Z,0
2019-02-27T02:53:34.285Z,0
2019-02-27T02:54:41.213Z,0
2019-02-27T02:55:37.007Z,0
2019-02-27T02:56:34.488Z,0
2019-02-27T02:57:40.886Z,0
2019-02-27T02:58:34.436Z,0
2019-02-27T02:59:34.422Z,0
2019-02-27T03:00:40.127Z,0
2019-02-27T03:01:34.367Z,0
2019-02-27T03:02:36.975Z,0
2019-02-27T03:03:41.020Z,0
2019-02-27T03:04:34.320Z,0
2019-02-27T03:05:34.303Z,0
2019-02-27T03:06:39.631Z,0
2019-02-27T03:07:34.022Z,0
2019-02-27T03:08:34.241Z,0
2019-02-27T03:09:38.551Z,0
2019-02-27T03:10:34.218Z,0
2019-02-27T03:11:34.193Z,0
2019-02-27T03:12:38.277Z,0
2019-02-27T03:13:34.190Z,0
2019-02-27T03:14:34.136Z,0
2019-02-27T03:15:36.671Z,0
2019-02-27T03:16:33.852Z,0
2019-02-27T03:17:34.078Z,0
2019-02-27T03:18:37.474Z,0
2019-02-27T03:19:34.048Z,0
2019-02-27T03:20:33.777Z,0
2019-02-27T03:21:35.922Z,0
2019-02-27T03:22:40.144Z,0
2019-02-27T03:23:34.001Z,0
2019-02-27T03:24:36.032Z,0
2019-02-27T03:25:40.046Z,0
2019-02-27T03:26:33.912Z,0
2019-02-27T03:27:37.840Z,0
2019-02-27T03:28:33.886Z,0
2019-02-27T03:29:33.865Z,0
2019-02-27T03:30:41.635Z,0
2019-02-27T03:31:33.840Z,0
2019-02-27T03:32:44.058Z,0
2019-02-27T03:33:34.535Z,0
2019-02-27T03:34:33.570Z,0
2019-02-27T03:35:36.427Z,0
2019-02-27T03:36:35.924Z,0
2019-02-27T03:37:33.762Z,0
2019-02-27T03:38:33.703Z,0
2019-02-27T03:39:39.576Z,0
2019-02-27T03:40:33.681Z,0
2019-02-27T03:41:33.655Z,0
2019-02-27T03:42:38.644Z,0
2019-02-27T03:43:33.610Z,0
2019-02-27T03:44:33.618Z,0
2019-02-27T03:45:37.981Z,0
2019-02-27T03:46:33.545Z,0
2019-02-27T03:47:33.539Z,0
2019-02-27T03:48:35.471Z,0
2019-02-27T03:49:39.494Z,0
2019-02-27T03:50:33.227Z,0
2019-02-27T03:51:33.471Z,0
2019-02-27T03:52:38.647Z,0
2019-02-27T03:53:33.428Z,0
2019-02-27T03:54:33.168Z,0
2019-02-27T03:55:39.075Z,0
2019-02-27T03:56:33.130Z,0
2019-02-27T03:57:33.364Z,0
2019-02-27T03:58:37.365Z,0
2019-02-27T03:59:33.326Z,0
2019-02-27T04:00:33.322Z,0
2019-02-27T04:01:37.413Z,0
2019-02-27T04:02:33.256Z,0
2019-02-27T04:03:33.237Z,0
2019-02-27T04:04:37.077Z,0
2019-02-27T04:05:33.226Z,0
2019-02-27T04:06:33.195Z,0
2019-02-27T04:07:38.811Z,0
2019-02-27T04:08:33.142Z,0
2019-02-27T04:09:32.887Z,0
2019-02-27T04:10:38.265Z,0
2019-02-27T04:11:32.861Z,0
2019-02-27T04:12:33.074Z,0
2019-02-27T04:13:34.945Z,0
2019-02-27T04:14:33.041Z,0
2019-02-27T04:15:32.774Z,0
2019-02-27T04:16:38.158Z,0
2019-02-27T04:17:33.020Z,0
2019-02-27T04:18:35.608Z,0
2019-02-27T04:19:38.663Z,0
2019-02-27T04:20:32.945Z,0
2019-02-27T04:21:33.254Z,0
2019-02-27T04:22:39.076Z,0
2019-02-27T04:23:32.877Z,0
2019-02-27T04:24:32.844Z,0
2019-02-27T04:25:38.395Z,0
2019-02-27T04:26:32.573Z,0
2019-02-27T04:27:32.558Z,0
2019-02-27T04:28:36.841Z,0
2019-02-27T04:29:32.518Z,0
2019-02-27T04:30:32.756Z,0
2019-02-27T04:31:36.882Z,0
2019-02-27T04:32:32.451Z,0
2019-02-27T04:33:32.587Z,0
2019-02-27T04:34:35.634Z,0
2019-02-27T04:35:34.245Z,0
2019-02-27T04:36:32.623Z,0
2019-02-27T04:37:32.355Z,0
2019-02-27T04:38:35.209Z,0
2019-02-27T04:39:32.320Z,0
2019-02-27T04:40:32.549Z,0
2019-02-27T04:41:32.287Z,0
2019-02-27T04:42:33.574Z,0
2019-02-27T04:43:36.642Z,0
2019-02-27T04:44:32.223Z,0
2019-02-27T04:45:32.454Z,0
2019-02-27T04:46:32.438Z,0
2019-02-27T04:47:36.043Z,0
2019-02-27T04:48:36.886Z,0
2019-02-27T04:49:34.747Z,0
2019-02-27T04:50:32.110Z,0
2019-02-27T04:51:32.341Z,0
2019-02-27T04:52:32.321Z,0
2019-02-27T04:53:36.487Z,0
2019-02-27T04:54:32.284Z,0
2019-02-27T04:55:32.279Z,0
2019-02-27T04:56:32.257Z,0
2019-02-27T04:57:35.893Z,0
2019-02-27T04:58:33.795Z,0
2019-02-27T04:59:31.938Z,0
2019-02-27T05:00:33.916Z,0
2019-02-27T05:01:36.106Z,0
2019-02-27T05:02:31.892Z,0
2019-02-27T05:03:34.792Z,0
2019-02-27T05:04:37.465Z,0
2019-02-27T05:05:31.849Z,0
2019-02-27T05:06:32.072Z,0
2019-02-27T05:07:32.040Z,0
2019-02-27T05:08:34.318Z,0
2019-02-27T05:09:36.252Z,0
2019-02-27T05:10:33.720Z,0
2019-02-27T05:11:34.124Z,0
2019-02-27T05:12:31.956Z,0
2019-02-27T05:13:31.931Z,0
2019-02-27T05:14:34.896Z,0
2019-02-27T05:15:31.893Z,0
2019-02-27T05:16:31.878Z,0
2019-02-27T05:17:31.860Z,0
2019-02-27T05:18:36.489Z,0
2019-02-27T05:19:31.890Z,0
2019-02-27T05:20:31.800Z,0
2019-02-27T05:21:31.534Z,0
2019-02-27T05:22:34.122Z,0
2019-02-27T05:23:35.644Z,0
2019-02-27T05:24:31.731Z,0
2019-02-27T05:25:31.706Z,0
2019-02-27T05:26:34.372Z,0
2019-02-27T05:27:32.190Z,0
2019-02-27T05:28:32.058Z,0
2019-02-27T05:29:31.634Z,0
2019-02-27T05:30:31.614Z,0
2019-02-27T05:31:31.597Z,4
2019-02-27T05:32:35.188Z,4
2019-02-27T05:33:35.656Z,0
2019-02-27T05:34:31.567Z,4
2019-02-27T05:35:31.596Z,4
2019-02-27T05:36:36.174Z,4
2019-02-27T05:37:31.486Z,8
2019-02-27T05:38:31.476Z,8
2019-02-27T05:39:31.249Z,12
2019-02-27T05:40:32.912Z,8
2019-02-27T05:41:35.474Z,12
2019-02-27T05:42:31.391Z,16
2019-02-27T05:43:31.126Z,16
2019-02-27T05:44:30.853Z,24
2019-02-27T05:45:35.183Z,28
2019-02-27T05:46:31.314Z,32
2019-02-27T05:47:31.044Z,40
2019-02-27T05:48:31.284Z,44
2019-02-27T05:49:33.487Z,52
2019-02-27T05:50:33.928Z,60
2019-02-27T05:51:31.234Z,68
2019-02-27T05:52:31.203Z,76
2019-02-27T05:53:31.189Z,88
2019-02-27T05:54:34.389Z,96
2019-02-27T05:55:31.150Z,108
2019-02-27T05:56:31.131Z,120
2019-02-27T05:57:31.447Z,132
2019-02-27T05:58:31.099Z,148
2019-02-27T05:59:34.013Z,164
2019-02-27T06:00:31.065Z,176
2019-02-27T06:01:30.788Z,200
2019-02-27T06:02:32.456Z,216
2019-02-27T06:03:31.000Z,240
2019-02-27T06:04:34.331Z,260
2019-02-27T06:05:30.970Z,284
2019-02-27T06:06:30.699Z,304
2019-02-27T06:07:30.683Z,332
2019-02-27T06:08:34.833Z,356
2019-02-27T06:09:30.651Z,388
2019-02-27T06:10:30.953Z,412
2019-02-27T06:11:35.593Z,440
2019-02-27T06:12:30.841Z,472
2019-02-27T06:13:30.813Z,500
2019-02-27T06:14:30.798Z,528
2019-02-27T06:15:35.348Z,560
2019-02-27T06:16:30.537Z,584
2019-02-27T06:17:30.845Z,616
2019-02-27T06:18:30.954Z,644
2019-02-27T06:19:35.712Z,672
2019-02-27T06:20:30.680Z,704
2019-02-27T06:21:30.671Z,732
2019-02-27T06:22:34.942Z,764
2019-02-27T06:23:30.648Z,792
2019-02-27T06:24:30.611Z,824
2019-02-27T06:25:31.178Z,852
2019-02-27T06:26:34.828Z,884
2019-02-27T06:27:31.635Z,912
2019-02-27T06:28:30.538Z,948
2019-02-27T06:29:33.095Z,972
2019-02-27T06:30:35.192Z,996
2019-02-27T06:31:30.481Z,1020
2019-02-27T06:32:30.464Z,1044
2019-02-27T06:33:30.206Z,1068
2019-02-27T06:34:32.000Z,1092
2019-02-27T06:35:33.207Z,1120
2019-02-27T06:36:30.164Z,1144
2019-02-27T06:37:29.895Z,1164
2019-02-27T06:38:32.991Z,1184
2019-02-27T06:39:34.082Z,1208
2019-02-27T06:40:30.429Z,1228
2019-02-27T06:41:30.131Z,1248
2019-02-27T06:42:30.513Z,1268
2019-02-27T06:43:34.495Z,1292
2019-02-27T06:44:30.376Z,1308
2019-02-27T06:45:30.413Z,1328
2019-02-27T06:46:30.147Z,1348
2019-02-27T06:47:32.960Z,1364
2019-02-27T06:48:30.421Z,1384
2019-02-27T06:49:30.167Z,1400
2019-02-27T06:50:33.151Z,1416
2019-02-27T06:51:30.424Z,1432
2019-02-27T06:52:30.400Z,1452
2019-02-27T06:53:30.410Z,1468
2019-02-27T06:54:30.451Z,1480
2019-02-27T06:55:36.315Z,1496
2019-02-27T06:56:30.383Z,1512
2019-02-27T06:57:31.600Z,1528
2019-02-27T06:58:30.406Z,1540
2019-02-27T06:59:32.766Z,1556
2019-02-27T07:00:31.427Z,1572
2019-02-27T07:01:30.405Z,1588
2019-02-27T07:02:30.133Z,1600
2019-02-27T07:03:35.427Z,1616
2019-02-27T07:04:31.411Z,1628
2019-02-27T07:05:30.389Z,1644
2019-02-27T07:06:30.423Z,1656
2019-02-27T07:07:33.274Z,1672
2019-02-27T07:08:30.390Z,1688
2019-02-27T07:09:30.367Z,1700
2019-02-27T07:10:30.364Z,1712
2019-02-27T07:11:30.156Z,1728
2019-02-27T07:12:30.319Z,1740
2019-02-27T07:13:33.550Z,1756
2019-02-27T07:14:30.284Z,1768
2019-02-27T07:15:30.014Z,1780
2019-02-27T07:16:30.886Z,1784
2019-02-27T07:17:33.697Z,1796
2019-02-27T07:18:30.223Z,1808
2019-02-27T07:19:30.202Z,1816
2019-02-27T07:20:32.298Z,1824
2019-02-27T07:21:35.004Z,1832
2019-02-27T07:22:30.138Z,1848
2019-02-27T07:23:30.959Z,1856
2019-02-27T07:24:33.566Z,1864
2019-02-27T07:25:30.109Z,1872
2019-02-27T07:26:30.078Z,1884
2019-02-27T07:27:33.166Z,1896
2019-02-27T07:28:30.031Z,1904
2019-02-27T07:29:34.583Z,1912
2019-02-27T07:30:31.038Z,1924
2019-02-27T07:31:30.594Z,1932
2019-02-27T07:32:33.857Z,1940
2019-02-27T07:33:29.949Z,1948
2019-02-27T07:34:29.688Z,1952
2019-02-27T07:35:34.085Z,1960
2019-02-27T07:36:29.893Z,1964
2019-02-27T07:37:29.875Z,1972
2019-02-27T07:38:30.128Z,1984
2019-02-27T07:39:32.531Z,1988
2019-02-27T07:40:29.824Z,1996
2019-02-27T07:41:29.562Z,2004
2019-02-27T07:42:36.250Z,2012
2019-02-27T07:43:29.771Z,2016
2019-02-27T07:44:32.212Z,2020
2019-02-27T07:45:30.130Z,2028
2019-02-27T07:46:30.180Z,2032
2019-02-27T07:47:29.711Z,2044
2019-02-27T07:48:29.560Z,2044
2019-02-27T07:49:33.001Z,2052
2019-02-27T07:50:29.656Z,2060
2019-02-27T07:51:30.738Z,2068
2019-02-27T07:52:34.696Z,2076
2019-02-27T07:53:30.479Z,2088
2019-02-27T07:54:33.778Z,2096
2019-02-27T07:55:33.296Z,2104
2019-02-27T07:56:29.556Z,2112
2019-02-27T07:57:29.534Z,2116
2019-02-27T07:58:35.344Z,2128
2019-02-27T07:59:29.548Z,2136
2019-02-27T08:00:31.233Z,2144
2019-02-27T08:01:31.053Z,2156
2019-02-27T08:02:29.451Z,2160
2019-02-27T08:03:29.193Z,2168
2019-02-27T08:04:30.146Z,2172
2019-02-27T08:05:33.018Z,2176
2019-02-27T08:06:30.848Z,2184
2019-02-27T08:07:29.353Z,2192
2019-02-27T08:08:31.365Z,2204
2019-02-27T08:09:32.547Z,2216
2019-02-27T08:10:29.300Z,2228
2019-02-27T08:11:31.246Z,2236
2019-02-27T08:12:29.280Z,2244
2019-02-27T08:13:31.670Z,2256
2019-02-27T08:14:28.993Z,2264
2019-02-27T08:15:30.467Z,2268
2019-02-27T08:16:30.278Z,2276
2019-02-27T08:17:31.194Z,2288
2019-02-27T08:18:41.578Z,2296
2019-02-27T08:19:29.156Z,2300
2019-02-27T08:20:29.153Z,2312
2019-02-27T08:21:28.877Z,2316
2019-02-27T08:22:30.917Z,2320
2019-02-27T08:23:31.716Z,2324
2019-02-27T08:24:30.471Z,2324
2019-02-27T08:25:28.818Z,2332
2019-02-27T08:26:29.052Z,2332
2019-02-27T08:27:29.039Z,2336
2019-02-27T08:28:29.022Z,2332
2019-02-27T08:29:28.755Z,2336
2019-02-27T08:30:29.004Z,2340
2019-02-27T08:31:34.494Z,2340
2019-02-27T08:32:28.969Z,2344
2019-02-27T08:33:28.941Z,2340
2019-02-27T08:34:28.924Z,2340
2019-02-27T08:35:28.676Z,2336
2019-02-27T08:36:28.658Z,2332
2019-02-27T08:37:28.940Z,2336
2019-02-27T08:38:30.562Z,2332
2019-02-27T08:39:28.610Z,2332
2019-02-27T08:40:31.324Z,2332
2019-02-27T08:41:29.070Z,2340
2019-02-27T08:42:28.570Z,2340
2019-02-27T08:43:30.396Z,2352
2019-02-27T08:44:28.778Z,2352
2019-02-27T08:45:34.081Z,2356
2019-02-27T08:46:28.751Z,2356
2019-02-27T08:47:28.753Z,2352
2019-02-27T08:48:28.723Z,2352
2019-02-27T08:49:31.906Z,2356
2019-02-27T08:50:29.124Z,2356
2019-02-27T08:51:28.679Z,2356
2019-02-27T08:52:28.420Z,2348
2019-02-27T08:53:34.523Z,2348
2019-02-27T08:54:31.903Z,2356
2019-02-27T08:55:29.873Z,2356
2019-02-27T08:56:30.024Z,2360
2019-02-27T08:57:28.350Z,2356
2019-02-27T08:58:32.958Z,2356
2019-02-27T08:59:28.571Z,2356
2019-02-27T09:00:30.345Z,2364
2019-02-27T09:01:29.417Z,2364
2019-02-27T09:02:31.569Z,2372
2019-02-27T09:03:28.020Z,2376
2019-02-27T09:04:28.260Z,2376
2019-02-27T09:05:28.269Z,2376
2019-02-27T09:06:32.187Z,2388
2019-02-27T09:07:28.470Z,2400
2019-02-27T09:08:31.324Z,2404
2019-02-27T09:09:28.200Z,2408
2019-02-27T09:10:34.050Z,2404
2019-02-27T09:11:28.408Z,2404
2019-02-27T09:12:28.385Z,2404
2019-02-27T09:13:28.376Z,2404
2019-02-27T09:14:28.364Z,2408
2019-02-27T09:15:28.277Z,2416
2019-02-27T09:16:33.012Z,2420
2019-02-27T09:17:31.954Z,2424
2019-02-27T09:18:30.120Z,2424
2019-02-27T09:19:28.118Z,2432
2019-02-27T09:20:28.300Z,2436
2019-02-27T09:21:32.207Z,2436
2019-02-27T09:22:28.261Z,2440
2019-02-27T09:23:28.256Z,2440
2019-02-27T09:24:28.758Z,2448
2019-02-27T09:25:31.687Z,2452
2019-02-27T09:26:28.865Z,2460
2019-02-27T09:27:27.701Z,2464
2019-02-27T09:28:28.185Z,2460
2019-02-27T09:29:28.173Z,2460
2019-02-27T09:30:33.694Z,2472
2019-02-27T09:31:28.142Z,2468
2019-02-27T09:32:27.879Z,2468
2019-02-27T09:33:28.146Z,2460
2019-02-27T09:34:31.617Z,2452
2019-02-27T09:35:32.193Z,2448
2019-02-27T09:36:28.075Z,2444
2019-02-27T09:37:28.217Z,2436
2019-02-27T09:38:31.311Z,2428
2019-02-27T09:39:35.073Z,2424
2019-02-27T09:40:29.575Z,2412
2019-02-27T09:41:28.014Z,2408
2019-02-27T09:42:27.759Z,2400
2019-02-27T09:43:32.351Z,2392
2019-02-27T09:44:27.981Z,2388
2019-02-27T09:45:27.977Z,2392
2019-02-27T09:46:27.720Z,2396
2019-02-27T09:47:32.621Z,2404
2019-02-27T09:48:27.935Z,2408
2019-02-27T09:49:27.679Z,2408
2019-02-27T09:50:27.663Z,2412
2019-02-27T09:51:29.670Z,2420
2019-02-27T09:52:32.314Z,2424
2019-02-27T09:53:27.872Z,2420
2019-02-27T09:54:27.886Z,2424
2019-02-27T09:55:28.031Z,2428
2019-02-27T09:56:32.738Z,2424
2019-02-27T09:57:29.546Z,2424
2019-02-27T09:58:29.843Z,2416
2019-02-27T09:59:27.808Z,2412
2019-02-27T10:00:30.764Z,2412
2019-02-27T10:01:29.171Z,2408
2019-02-27T10:02:27.561Z,2408
2019-02-27T10:03:28.736Z,2408
2019-02-27T10:04:30.623Z,2412
2019-02-27T10:05:27.738Z,2428
2019-02-27T10:06:27.492Z,2440
2019-02-27T10:07:27.718Z,2444
2019-02-27T10:08:30.188Z,2444
2019-02-27T10:09:27.700Z,2448
2019-02-27T10:10:27.700Z,2452
2019-02-27T10:11:29.240Z,2452
2019-02-27T10:12:31.923Z,2452
2019-02-27T10:13:27.406Z,2456
2019-02-27T10:14:27.402Z,2452
2019-02-27T10:15:32.000Z,2452
2019-02-27T10:16:27.622Z,2452
2019-02-27T10:17:28.585Z,2444
2019-02-27T10:18:29.276Z,2444
2019-02-27T10:19:29.967Z,2436
2019-02-27T10:20:27.352Z,2428
2019-02-27T10:21:27.571Z,2432
2019-02-27T10:22:29.411Z,2440
2019-02-27T10:23:30.130Z,2436
2019-02-27T10:24:27.289Z,2436
2019-02-27T10:25:27.540Z,2436
2019-02-27T10:26:29.548Z,2448
2019-02-27T10:27:30.914Z,2460
2019-02-27T10:28:27.495Z,2476
2019-02-27T10:29:27.484Z,2480
2019-02-27T10:30:27.491Z,2468
2019-02-27T10:31:28.409Z,2448
2019-02-27T10:32:27.454Z,2428
2019-02-27T10:33:28.043Z,2420
2019-02-27T10:34:27.435Z,2416
2019-02-27T10:35:31.616Z,2416
2019-02-27T10:36:27.418Z,2416
2019-02-27T10:37:27.673Z,2420
2019-02-27T10:38:29.107Z,2416
2019-02-27T10:39:27.394Z,2412
2019-02-27T10:40:27.380Z,2408
2019-02-27T10:41:27.121Z,2416
2019-02-27T10:42:27.356Z,2416
2019-02-27T10:43:28.389Z,2416
2019-02-27T10:44:27.339Z,2412
2019-02-27T10:45:27.338Z,2408
2019-02-27T10:46:30.590Z,2408
2019-02-27T10:47:27.315Z,2412
2019-02-27T10:48:27.301Z,2408
2019-02-27T10:49:29.040Z,2404
2019-02-27T10:50:27.287Z,2400
2019-02-27T10:51:27.033Z,2400
2019-02-27T10:52:31.484Z,2396
2019-02-27T10:53:32.021Z,2396
2019-02-27T10:54:27.248Z,2392
2019-02-27T10:55:29.453Z,2396
2019-02-27T10:56:31.197Z,2392
2019-02-27T10:57:31.402Z,2392
2019-02-27T10:58:29.386Z,2388
2019-02-27T10:59:30.077Z,2388
2019-02-27T11:00:29.889Z,2380
2019-02-27T11:01:26.932Z,2376
2019-02-27T11:02:28.407Z,2372
2019-02-27T11:03:30.848Z,2368
2019-02-27T11:04:27.152Z,2360
2019-02-27T11:05:27.142Z,2356
2019-02-27T11:06:37.680Z,2348
2019-02-27T11:07:26.879Z,2348
2019-02-27T11:08:31.320Z,2344
2019-02-27T11:09:27.109Z,2340
2019-02-27T11:10:28.898Z,2340
2019-02-27T11:11:27.087Z,2336
2019-02-27T11:12:31.566Z,2332
2019-02-27T11:13:27.084Z,2324
2019-02-27T11:14:31.604Z,2320
2019-02-27T11:15:27.061Z,2320
2019-02-27T11:16:30.376Z,2320
2019-02-27T11:17:27.037Z,2320
2019-02-27T11:18:26.778Z,2312
2019-02-27T11:19:27.017Z,2308
2019-02-27T11:20:29.548Z,2308
2019-02-27T11:21:26.756Z,2300
2019-02-27T11:22:31.365Z,2296
2019-02-27T11:23:26.980Z,2292
2019-02-27T11:24:27.221Z,2292
2019-02-27T11:25:29.645Z,2292
2019-02-27T11:26:26.710Z,2292
2019-02-27T11:27:26.704Z,2296
2019-02-27T11:28:26.942Z,2288
2019-02-27T11:29:30.817Z,2280
2019-02-27T11:30:26.941Z,2280
2019-02-27T11:31:26.912Z,2268
2019-02-27T11:32:30.221Z,2268
2019-02-27T11:33:37.562Z,2268
2019-02-27T11:34:26.883Z,2264
2019-02-27T11:35:31.832Z,2264
2019-02-27T11:36:26.620Z,2260
2019-02-27T11:37:26.869Z,2256
2019-02-27T11:38:31.471Z,2260
2019-02-27T11:39:26.998Z,2256
2019-02-27T11:40:26.849Z,2252
2019-02-27T11:41:26.823Z,2244
2019-02-27T11:42:28.909Z,2240
2019-02-27T11:43:26.807Z,2236
2019-02-27T11:44:26.553Z,2232
2019-02-27T11:45:30.921Z,2236
2019-02-27T11:46:26.781Z,2228
2019-02-27T11:47:26.773Z,2228
2019-02-27T11:48:29.604Z,2228
2019-02-27T11:49:26.764Z,2224
2019-02-27T11:50:26.508Z,2228
2019-02-27T11:51:28.000Z,2228
2019-02-27T11:52:30.289Z,2228
2019-02-27T11:53:26.724Z,2224
2019-02-27T11:54:26.718Z,2220
2019-02-27T11:55:27.099Z,2216
2019-02-27T11:56:27.933Z,2212
2019-02-27T11:57:27.268Z,2212
2019-02-27T11:58:26.682Z,2208
2019-02-27T11:59:26.674Z,2200
2019-02-27T12:00:28.319Z,2196
2019-02-27T12:01:29.791Z,2196
2019-02-27T12:02:39.508Z,2188
2019-02-27T12:03:26.647Z,2188
2019-02-27T12:04:27.182Z,2184
2019-02-27T12:05:30.115Z,2180
2019-02-27T12:06:26.374Z,2180
2019-02-27T12:07:26.614Z,2176
2019-02-27T12:08:30.250Z,2172
2019-02-27T12:09:26.596Z,2168
2019-02-27T12:10:26.589Z,2164
2019-02-27T12:11:26.577Z,2160
2019-02-27T12:12:29.795Z,2156
2019-02-27T12:13:26.557Z,2152
2019-02-27T12:14:26.554Z,2148
2019-02-27T12:15:27.265Z,2144
2019-02-27T12:16:26.538Z,2140
2019-02-27T12:17:30.239Z,2140
2019-02-27T12:18:28.386Z,2136
2019-02-27T12:19:26.270Z,2132
2019-02-27T12:20:26.511Z,2132
2019-02-27T12:21:27.898Z,2128
2019-02-27T12:22:26.490Z,2120
2019-02-27T12:23:26.484Z,2116
2019-02-27T12:24:26.815Z,2112
2019-02-27T12:25:32.653Z,2108
2019-02-27T12:26:26.475Z,2104
2019-02-27T12:27:54.785Z,2096
2019-02-27T12:28:26.440Z,2100
2019-02-27T12:29:31.035Z,2092
2019-02-27T12:30:26.178Z,2088
2019-02-27T12:31:26.171Z,2084
2019-02-27T12:32:29.026Z,2084
2019-02-27T12:33:29.128Z,2076
2019-02-27T12:34:27.627Z,2080
2019-02-27T12:35:26.384Z,2072
2019-02-27T12:36:26.600Z,2068
2019-02-27T12:37:38.613Z,2064
2019-02-27T12:38:26.368Z,2064
2019-02-27T12:39:26.357Z,2060
2019-02-27T12:40:31.228Z,2060
2019-02-27T12:41:26.343Z,2056
2019-02-27T12:42:26.339Z,2052
2019-02-27T12:43:26.076Z,2052
2019-02-27T12:44:26.318Z,2052
2019-02-27T12:45:29.621Z,2048
2019-02-27T12:46:26.391Z,2048
2019-02-27T12:47:26.297Z,2040
2019-02-27T12:48:26.107Z,2040
2019-02-27T12:49:27.899Z,2036
2019-02-27T12:50:32.034Z,2032
2019-02-27T12:51:28.184Z,2024
2019-02-27T12:52:27.503Z,2020
2019-02-27T12:53:28.534Z,2016
2019-02-27T12:54:29.254Z,2008
2019-02-27T12:55:27.412Z,2008
2019-02-27T12:56:25.732Z,2004
2019-02-27T12:57:26.212Z,2000
2019-02-27T12:58:29.224Z,1996
2019-02-27T12:59:26.200Z,1996
2019-02-27T13:00:26.201Z,1992
2019-02-27T13:01:26.180Z,1992
2019-02-27T13:02:38.265Z,1988
2019-02-27T13:03:26.170Z,1984
2019-02-27T13:04:27.180Z,1980
2019-02-27T13:05:28.889Z,1980
2019-02-27T13:06:25.894Z,1980
2019-02-27T13:07:27.691Z,1976
2019-02-27T13:08:26.647Z,1976
2019-02-27T13:09:29.114Z,1972
2019-02-27T13:10:26.113Z,1972
2019-02-27T13:11:25.859Z,1972
2019-02-27T13:12:26.097Z,1972
2019-02-27T13:13:30.486Z,1972
2019-02-27T13:14:26.085Z,1968
2019-02-27T13:15:26.087Z,1964
2019-02-27T13:16:26.065Z,1968
2019-02-27T13:17:28.609Z,1968
2019-02-27T13:18:25.810Z,1964
2019-02-27T13:19:26.042Z,1968
2019-02-27T13:20:26.035Z,1964
2019-02-27T13:21:28.310Z,1960
2019-02-27T13:22:31.244Z,1960
2019-02-27T13:23:26.011Z,1960
2019-02-27T13:24:26.011Z,1956
2019-02-27T13:25:30.309Z,1956
2019-02-27T13:26:25.740Z,1952
2019-02-27T13:27:27.592Z,1952
2019-02-27T13:28:25.976Z,1948
2019-02-27T13:29:27.778Z,1944
2019-02-27T13:30:25.957Z,1940
2019-02-27T13:31:26.913Z,1932
2019-02-27T13:32:29.027Z,1928
2019-02-27T13:33:25.968Z,1928
2019-02-27T13:34:25.930Z,1928
2019-02-27T13:35:31.186Z,1924
2019-02-27T13:36:25.912Z,1924
2019-02-27T13:37:25.924Z,1924
2019-02-27T13:38:25.905Z,1916
2019-02-27T13:39:30.249Z,1916
2019-02-27T13:40:25.884Z,1912
2019-02-27T13:41:26.301Z,1912
2019-02-27T13:42:26.347Z,1912
2019-02-27T13:43:29.076Z,1908
2019-02-27T13:44:25.875Z,1912
2019-02-27T13:45:25.849Z,1908
2019-02-27T13:46:29.666Z,1908
2019-02-27T13:47:25.588Z,1912
2019-02-27T13:48:25.605Z,1912
2019-02-27T13:49:25.992Z,1912
2019-02-27T13:50:31.737Z,1912
2019-02-27T13:51:25.800Z,1912
2019-02-27T13:52:25.703Z,1912
2019-02-27T13:53:30.619Z,1908
2019-02-27T13:54:26.752Z,1904